Time;durP1;ratioP1;P1;durP2;ratioP2;P2;SDS_P1;SDS_P2;PMS_P1;PMS_P2;Temp;Humidity;BMP_temperature;BMP_pressure;BME280_temperature;BME280_humidity;BME280_pressure;Samples;Min_cycle;Max_cycle;Signal;HPM_P1;HPM_P2
2023/03/31 00:00:45;;;;;;;12.45;3.42;;;;;;;15.41;49.79;101328.78;6033098;23;20343;-84
2023/03/31 00:03:42;;;;;;;12.35;3.20;;;;;;;14.68;50.08;101195.91;6037343;23;20023;-82
2023/03/31 00:06:16;;;;;;;25.90;5.30;;;;;;;15.01;50.17;101231.06;6034544;23;20035;-82
2023/03/31 00:08:54;;;;;;;21.67;4.22;;;;;;;15.65;50.74;101363.00;6029671;23;20235;-83
2023/03/31 00:11:23;;;;;;;20.88;3.80;;;;;;;14.56;50.59;101198.94;6044918;23;20023;-84
2023/03/31 00:13:53;;;;;;;14.40;3.55;;;;;;;15.36;50.98;101325.72;6045512;23;20065;-84
2023/03/31 00:16:23;;;;;;;20.33;4.40;;;;;;;15.52;50.92;101344.63;6016944;23;20424;-83
2023/03/31 00:18:50;;;;;;;10.90;3.30;;;;;;;14.92;50.64;101231.94;6036118;23;20366;-83
2023/03/31 00:21:24;;;;;;;11.82;3.45;;;;;;;15.06;50.91;101258.19;6056626;23;20026;-83
2023/03/31 00:24:08;;;;;;;9.68;3.67;;;;;;;15.45;50.61;101324.00;6029380;23;20093;-83
2023/03/31 00:26:37;;;;;;;18.50;3.60;;;;;;;14.86;50.48;101211.19;6027069;23;20236;-84
2023/03/31 00:29:05;;;;;;;15.48;3.95;;;;;;;15.46;50.59;101305.13;5993707;23;20268;-82
2023/03/31 00:31:32;;;;;;;12.95;3.55;;;;;;;15.63;50.82;101337.38;6030820;23;20358;-84
2023/03/31 00:33:59;;;;;;;13.00;3.53;;;;;;;15.51;51.18;101334.06;6012013;23;20378;-83
2023/03/31 00:36:26;;;;;;;19.33;3.60;;;;;;;15.42;50.82;101314.44;6070808;23;20246;-85
2023/03/31 00:39:07;;;;;;;14.10;3.50;;;;;;;15.32;50.97;101290.41;6054509;23;20026;-83
2023/03/31 00:41:53;;;;;;;14.93;3.55;;;;;;;15.42;51.12;101324.28;6048833;23;20075;-82
2023/03/31 00:44:26;;;;;;;13.13;3.33;;;;;;;15.41;51.73;101342.16;6049199;23;20367;-83
2023/03/31 00:47:06;;;;;;;9.07;3.17;;;;;;;15.39;51.73;101346.84;6044707;23;20053;-83
2023/03/31 00:49:39;;;;;;;9.77;3.55;;;;;;;14.99;52.62;101291.84;6033463;23;20022;-83
2023/03/31 00:52:12;;;;;;;16.63;4.00;;;;;;;15.26;52.57;101346.34;6037339;23;20473;-83
2023/03/31 00:55:02;;;;;;;11.90;3.50;;;;;;;15.15;52.08;101307.28;6012514;23;20034;-84
2023/03/31 00:57:38;;;;;;;10.75;3.42;;;;;;;14.51;52.63;101223.38;6019686;23;20224;-82
2023/03/31 01:00:14;;;;;;;14.82;3.90;;;;;;;15.13;52.60;101320.78;6048445;23;20238;-84
2023/03/31 01:02:54;;;;;;;15.07;3.75;;;;;;;14.27;52.15;101192.72;6023576;23;20116;-82
2023/03/31 01:06:02;;;;;;;12.15;3.35;;;;;;;15.31;51.93;101328.00;6037514;23;20125;-84
2023/03/31 01:08:39;;;;;;;17.48;4.10;;;;;;;15.21;52.96;101321.88;6025076;23;20023;-84
2023/03/31 01:11:24;;;;;;;13.32;3.03;;;;;;;15.10;52.77;101294.34;6051927;23;20061;-84
2023/03/31 01:13:57;;;;;;;13.15;3.42;;;;;;;15.21;53.18;101308.50;6067190;23;20019;-83
2023/03/31 01:16:27;;;;;;;13.13;3.28;;;;;;;14.73;53.43;101233.75;6048809;23;20014;-83
2023/03/31 01:19:18;;;;;;;10.25;3.33;;;;;;;15.14;53.18;101301.06;6068117;23;20030;-83
2023/03/31 01:21:52;;;;;;;13.38;4.03;;;;;;;15.22;53.02;101292.31;6061408;23;20027;-82
2023/03/31 01:25:00;;;;;;;11.90;3.78;;;;;;;15.21;53.44;101292.44;6050432;23;20050;-83
2023/03/31 01:27:40;;;;;;;15.32;4.30;;;;;;;14.72;53.39;101218.69;6058897;23;20026;-84
2023/03/31 01:30:39;;;;;;;12.65;3.90;;;;;;;15.21;52.94;101284.44;6043388;23;20061;-83
2023/03/31 01:33:45;;;;;;;12.60;3.55;;;;;;;14.95;53.37;101245.00;6022368;23;20019;-84
2023/03/31 01:36:25;;;;;;;15.15;3.85;;;;;;;15.21;52.76;101257.69;6040707;23;20026;-83
2023/03/31 01:39:32;;;;;;;14.65;3.75;;;;;;;15.27;52.74;101268.63;6021316;23;20317;-83
2023/03/31 01:42:19;;;;;;;10.10;3.13;;;;;;;15.27;52.81;101275.81;6012589;23;20030;-84
2023/03/31 01:45:13;;;;;;;13.13;4.28;;;;;;;15.20;53.31;101272.06;5999801;23;20030;-84
2023/03/31 01:47:57;;;;;;;10.20;3.33;;;;;;;15.11;53.43;101265.75;6036326;23;20026;-84
2023/03/31 01:50:34;;;;;;;15.00;4.30;;;;;;;15.10;53.55;101267.59;6060364;23;20019;-84
2023/03/31 01:53:34;;;;;;;12.23;3.97;;;;;;;15.05;53.92;101261.88;6013158;23;20091;-84
2023/03/31 01:56:08;;;;;;;13.38;3.83;;;;;;;15.07;53.89;101245.66;6038820;23;20811;-84
2023/03/31 01:58:51;;;;;;;11.93;3.65;;;;;;;15.10;53.59;101246.22;6016188;23;20034;-84
2023/03/31 02:01:41;;;;;;;13.50;4.22;;;;;;;15.13;53.49;101235.19;6013194;23;20029;-84
2023/03/31 02:04:32;;;;;;;15.27;3.83;;;;;;;15.20;53.13;101226.59;6027217;23;20047;-82
2023/03/31 02:07:10;;;;;;;12.30;3.67;;;;;;;15.03;53.09;101191.66;6017555;23;20026;-83
2023/03/31 02:09:43;;;;;;;19.50;4.00;;;;;;;14.93;54.05;101199.72;6019612;23;20019;-83
2023/03/31 02:12:24;;;;;;;18.52;3.85;;;;;;;15.07;53.91;101219.78;6032067;23;20448;-83
2023/03/31 02:14:55;;;;;;;15.80;3.25;;;;;;;15.01;53.66;101182.94;6040522;23;20037;-83
2023/03/31 02:17:32;;;;;;;13.85;3.45;;;;;;;15.04;53.15;101193.31;6018515;23;20467;-84
2023/03/31 02:20:05;;;;;;;12.48;3.33;;;;;;;15.07;53.74;101198.38;6007251;23;20021;-84
2023/03/31 02:22:36;;;;;;;13.98;3.95;;;;;;;14.47;53.66;101101.81;6004756;23;20033;-82
2023/03/31 02:25:06;;;;;;;13.65;3.95;;;;;;;15.13;53.66;101203.13;5988621;23;20430;-83
2023/03/31 02:27:51;;;;;;;11.25;3.42;;;;;;;14.46;53.66;101094.78;6031644;23;20075;-83
2023/03/31 02:30:21;;;;;;;22.80;3.88;;;;;;;15.14;53.96;101194.09;6018951;23;20023;-82
2023/03/31 02:32:50;;;;;;;11.80;3.83;;;;;;;15.04;54.15;101176.44;6000794;23;20366;-83
2023/03/31 02:35:21;;;;;;;12.20;3.78;;;;;;;15.01;53.89;101152.69;6010957;23;20094;-83
2023/03/31 02:37:54;;;;;;;15.13;3.88;;;;;;;14.73;54.44;101132.19;5996263;23;20019;-83
2023/03/31 02:40:29;;;;;;;13.52;4.47;;;;;;;14.83;54.82;101163.34;6001768;23;20033;-83
2023/03/31 02:43:03;;;;;;;18.35;3.85;;;;;;;14.85;55.27;101175.56;6013191;23;20265;-83
2023/03/31 02:45:38;;;;;;;22.30;4.00;;;;;;;14.82;55.60;101185.72;5987605;23;20255;-83
2023/03/31 02:48:27;;;;;;;17.48;3.97;;;;;;;14.70;55.76;101175.22;6020558;23;20030;-83
2023/03/31 02:51:07;;;;;;;18.15;4.82;;;;;;;14.41;56.04;101131.78;5989818;23;20019;-82
2023/03/31 02:53:42;;;;;;;12.43;3.88;;;;;;;14.44;56.02;101132.34;5996176;23;20039;-83
2023/03/31 02:57:06;;;;;;;15.52;4.10;;;;;;;14.66;56.46;101181.88;6008526;23;20316;-83
2023/03/31 03:00:06;;;;;;;14.40;3.75;;;;;;;14.43;56.67;101167.19;5998945;23;20500;-84
2023/03/31 03:02:53;;;;;;;16.67;4.03;;;;;;;14.52;56.56;101198.38;5949056;23;20031;-83
2023/03/31 03:05:48;;;;;;;20.00;4.03;;;;;;;14.54;56.58;101207.13;5964769;23;20024;-84
2023/03/31 03:08:42;;;;;;;10.30;4.03;;;;;;;14.47;56.74;101200.66;5966373;23;20464;-82
2023/03/31 03:11:21;;;;;;;19.98;5.00;;;;;;;14.47;56.75;101201.50;6017198;23;20516;-82
2023/03/31 03:14:04;;;;;;;14.07;4.30;;;;;;;14.42;57.03;101206.44;5964662;23;20078;-82
2023/03/31 03:16:49;;;;;;;15.70;4.35;;;;;;;14.36;57.36;101203.50;5960473;23;20027;-82
2023/03/31 03:19:21;;;;;;;14.38;4.45;;;;;;;13.98;57.15;101135.88;5994150;23;20654;-83
2023/03/31 03:21:50;;;;;;;13.55;3.92;;;;;;;14.17;57.28;101173.19;5971136;23;20023;-81
2023/03/31 03:24:21;;;;;;;11.63;4.55;;;;;;;14.17;57.30;101172.34;5960625;23;20458;-83
2023/03/31 03:26:48;;;;;;;17.15;5.00;;;;;;;14.29;57.54;101197.91;6020989;23;20019;-81
2023/03/31 03:29:16;;;;;;;14.70;4.18;;;;;;;13.41;57.31;101058.53;5971035;23;20089;-83
2023/03/31 03:31:43;;;;;;;23.25;4.03;;;;;;;13.25;57.53;101038.63;5997319;23;20184;-83
2023/03/31 03:34:12;;;;;;;16.88;4.78;;;;;;;13.35;57.75;101054.63;5985459;23;20027;-83
2023/03/31 03:36:44;;;;;;;12.82;4.43;;;;;;;14.20;57.41;101183.59;6000474;23;20030;-82
2023/03/31 03:39:12;;;;;;;12.32;4.07;;;;;;;14.10;57.70;101166.75;5976267;23;20276;-83
2023/03/31 03:41:39;;;;;;;15.50;4.68;;;;;;;14.14;57.53;101178.00;6019357;23;20389;-82
2023/03/31 03:44:06;;;;;;;10.00;3.90;;;;;;;14.13;57.65;101174.50;5971814;23;20261;-81
2023/03/31 03:46:37;;;;;;;13.50;4.07;;;;;;;14.25;57.31;101175.16;5932811;23;20026;-84
2023/03/31 03:49:10;;;;;;;13.85;4.68;;;;;;;14.25;56.84;101175.16;5986457;23;20023;-85
2023/03/31 03:51:39;;;;;;;12.20;5.55;;;;;;;13.93;56.90;101140.81;5980926;23;20090;-84
2023/03/31 03:54:07;;;;;;;21.77;5.38;;;;;;;13.18;57.13;101025.97;5975977;23;20364;-83
2023/03/31 03:56:34;;;;;;;11.45;4.85;;;;;;;13.37;56.77;101052.63;5976235;23;20047;-83
2023/03/31 03:59:03;;;;;;;14.35;5.20;;;;;;;13.96;57.19;101156.56;5988968;23;20020;-83
2023/03/31 04:01:30;;;;;;;11.05;5.30;;;;;;;13.88;57.48;101165.28;6034520;23;20717;-83
2023/03/31 04:03:57;;;;;;;17.42;5.97;;;;;;;13.76;57.64;101153.94;5998189;23;20352;-82
2023/03/31 04:06:26;;;;;;;13.30;4.65;;;;;;;12.46;57.76;100944.72;5998447;23;20349;-83
2023/03/31 04:08:56;;;;;;;18.70;5.30;;;;;;;13.01;58.01;101046.19;6007366;23;20102;-83
2023/03/31 04:11:22;;;;;;;15.18;5.22;;;;;;;13.70;58.24;101154.50;6028498;23;20031;-82
2023/03/31 04:13:49;;;;;;;17.02;5.32;;;;;;;12.57;58.60;100958.75;6008056;23;20019;-83
2023/03/31 04:16:16;;;;;;;20.50;5.35;;;;;;;13.12;58.75;101066.53;6013445;23;20027;-83
2023/03/31 04:18:43;;;;;;;19.33;5.05;;;;;;;12.87;58.92;101028.84;5985477;23;20019;-82
2023/03/31 04:21:26;;;;;;;16.30;5.50;;;;;;;12.82;59.42;101018.59;6026047;23;20023;-83
2023/03/31 04:24:00;;;;;;;17.35;5.45;;;;;;;13.74;58.64;101137.22;6027917;23;20361;-81
2023/03/31 04:26:44;;;;;;;15.27;5.40;;;;;;;12.95;58.75;101015.63;6020475;23;20482;-83
2023/03/31 04:29:15;;;;;;;25.52;6.05;;;;;;;13.71;58.70;101140.16;6019702;23;20023;-83
2023/03/31 04:31:45;;;;;;;17.20;6.18;;;;;;;13.25;58.52;101085.75;6031591;23;20492;-83
2023/03/31 04:34:18;;;;;;;20.48;5.90;;;;;;;13.53;58.45;101131.22;6056939;23;20031;-83
2023/03/31 04:36:49;;;;;;;19.15;5.97;;;;;;;13.67;58.07;101165.47;6008512;23;20073;-82
2023/03/31 04:39:29;;;;;;;23.95;5.88;;;;;;;13.40;58.35;101121.72;6010581;23;20051;-83
2023/03/31 04:42:00;;;;;;;14.65;6.68;;;;;;;12.85;58.48;101049.44;6019796;23;20026;-82
2023/03/31 04:44:29;;;;;;;20.60;7.03;;;;;;;12.76;58.53;101042.28;6027701;23;20033;-83
2023/03/31 04:47:01;;;;;;;21.75;5.95;;;;;;;13.62;58.20;101146.38;5994434;23;20015;-83
2023/03/31 04:49:28;;;;;;;16.77;5.90;;;;;;;13.45;58.69;101142.63;6006677;23;20023;-83
2023/03/31 04:52:16;;;;;;;18.77;6.53;;;;;;;12.22;58.95;100931.81;6000933;23;20027;-83
2023/03/31 04:54:43;;;;;;;22.65;7.25;;;;;;;13.30;59.20;101115.53;6031535;23;20251;-84
2023/03/31 04:57:10;;;;;;;24.60;5.97;;;;;;;12.25;59.30;100950.16;5992977;23;20523;-82
2023/03/31 04:59:37;;;;;;;23.23;6.38;;;;;;;12.06;59.46;100922.53;6063271;23;20034;-82
2023/03/31 05:02:03;;;;;;;15.60;6.20;;;;;;;12.08;59.50;100925.91;6061785;23;20319;-83
2023/03/31 05:04:54;;;;;;;18.00;7.32;;;;;;;13.24;59.22;101089.41;6006425;23;20459;-82
2023/03/31 05:07:22;;;;;;;18.38;6.18;;;;;;;13.45;59.74;101129.28;5998035;23;20353;-83
2023/03/31 05:09:49;;;;;;;22.50;7.35;;;;;;;12.83;59.57;101027.41;6023452;23;20055;-83
2023/03/31 05:12:16;;;;;;;17.60;5.85;;;;;;;13.44;59.72;101117.75;5996662;23;20023;-84
2023/03/31 05:14:43;;;;;;;19.70;6.15;;;;;;;12.70;60.26;101002.91;6005284;23;20023;-84
2023/03/31 05:17:10;;;;;;;17.83;7.00;;;;;;;12.50;60.20;100970.94;6007247;23;20711;-85
2023/03/31 05:19:37;;;;;;;32.42;7.57;;;;;;;13.55;59.60;101123.94;5989166;23;20515;-84
2023/03/31 05:22:04;;;;;;;29.63;8.15;;;;;;;13.34;60.06;101095.59;5977839;23;20404;-84
2023/03/31 05:24:32;;;;;;;19.40;7.70;;;;;;;13.10;59.90;101055.19;6008419;23;20236;-83
2023/03/31 05:26:58;;;;;;;29.15;8.65;;;;;;;12.54;59.89;100958.16;5988667;23;20019;-82
2023/03/31 05:29:26;;;;;;;25.80;8.82;;;;;;;12.53;59.60;100951.19;6014852;23;20220;-82
2023/03/31 05:31:52;;;;;;;31.55;9.90;;;;;;;12.76;59.35;100971.19;5988360;23;20499;-83
2023/03/31 05:34:19;;;;;;;20.35;10.23;;;;;;;12.95;59.58;101004.97;5966500;23;20023;-84
2023/03/31 05:36:52;;;;;;;29.05;11.30;;;;;;;13.42;59.28;101077.06;6012681;23;20050;-84
2023/03/31 05:39:24;;;;;;;32.88;12.43;;;;;;;13.58;58.94;101104.97;5996932;23;20619;-85
2023/03/31 05:41:51;;;;;;;27.23;12.15;;;;;;;13.45;59.33;101091.94;6031126;23;20427;-84
2023/03/31 05:44:19;;;;;;;30.77;12.98;;;;;;;12.85;58.88;101009.47;6001902;23;20275;-83
2023/03/31 05:46:46;;;;;;;22.30;11.77;;;;;;;12.77;59.57;100985.38;6009234;23;20240;-84
2023/03/31 05:49:15;;;;;;;25.17;11.30;;;;;;;13.36;59.33;101077.63;5986818;23;20476;-83
2023/03/31 05:51:41;;;;;;;24.35;11.98;;;;;;;13.51;59.62;101111.84;5984984;23;20333;-84
2023/03/31 05:54:08;;;;;;;23.23;12.32;;;;;;;13.61;59.07;101123.34;5995208;23;20027;-84
2023/03/31 05:56:44;;;;;;;28.98;11.55;;;;;;;13.42;59.06;101087.75;6013076;23;20054;-82
2023/03/31 05:59:11;;;;;;;32.42;12.55;;;;;;;12.24;58.97;100912.06;6023834;23;20020;-80
2023/03/31 06:01:41;;;;;;;31.73;12.10;;;;;;;13.01;59.00;101035.53;6034829;23;20563;-81
2023/03/31 06:04:15;;;;;;;25.67;12.85;;;;;;;13.59;59.40;101114.63;6003315;23;20023;-83
2023/03/31 06:06:43;;;;;;;35.17;14.23;;;;;;;13.52;59.58;101082.38;6012849;23;20122;-82
2023/03/31 06:09:19;;;;;;;35.40;14.60;;;;;;;13.36;59.69;101072.28;6010457;23;20031;-82
2023/03/31 06:11:46;;;;;;;28.63;13.23;;;;;;;13.18;59.39;101048.16;5988104;23;20028;-82
2023/03/31 06:14:17;;;;;;;28.90;13.18;;;;;;;12.79;59.65;100992.25;6029382;23;20463;-82
2023/03/31 06:16:56;;;;;;;35.60;14.45;;;;;;;11.94;59.13;100852.69;6002290;23;20412;-81
2023/03/31 06:19:25;;;;;;;34.47;13.20;;;;;;;13.55;59.47;101118.59;5988380;23;20055;-83
2023/03/31 06:21:55;;;;;;;32.25;14.57;;;;;;;12.81;59.75;100994.75;6012474;23;20114;-82
2023/03/31 06:24:22;;;;;;;39.30;15.60;;;;;;;12.75;59.85;100982.00;5986665;23;20102;-81
2023/03/31 06:26:55;;;;;;;31.15;16.42;;;;;;;12.71;59.94;100964.63;6042597;23;20030;-85
2023/03/31 06:29:22;;;;;;;27.13;14.55;;;;;;;12.39;59.13;100896.50;6007066;23;20047;-84
2023/03/31 06:31:49;;;;;;;33.58;15.70;;;;;;;13.71;59.32;101108.16;6008778;23;20026;-84
2023/03/31 06:34:17;;;;;;;36.00;14.45;;;;;;;13.74;59.04;101104.34;6031518;23;20024;-84
2023/03/31 06:36:47;;;;;;;26.02;14.40;;;;;;;12.36;59.22;100878.16;6008947;23;20020;-82
2023/03/31 06:39:17;;;;;;;37.63;16.08;;;;;;;13.67;59.03;101070.25;6005069;23;20023;-83
2023/03/31 06:41:44;;;;;;;34.45;15.25;;;;;;;13.74;58.91;101093.69;6001768;23;20023;-84
2023/03/31 06:44:15;;;;;;;30.55;13.70;;;;;;;13.70;58.67;101090.47;5993367;23;20341;-83
2023/03/31 06:46:42;;;;;;;29.17;14.85;;;;;;;12.85;58.61;100918.06;6009647;23;20020;-83
2023/03/31 06:49:19;;;;;;;277.23;28.33;;;;;;;13.34;58.55;100996.94;6006044;23;20034;-84
2023/03/31 06:51:49;;;;;;;196.25;27.80;;;;;;;13.66;58.46;101046.38;6028094;23;20281;-77
2023/03/31 06:54:25;;;;;;;29.55;11.95;;;;;;;13.85;58.46;101073.00;6029933;23;20034;-82
2023/03/31 06:56:59;;;;;;;27.38;10.30;;;;;;;13.23;58.30;100957.09;5971795;23;20057;-82
2023/03/31 06:59:30;;;;;;;30.58;9.75;;;;;;;14.00;57.95;101067.19;6010938;23;20023;-82
2023/03/31 07:01:57;;;;;;;20.45;9.52;;;;;;;13.86;57.28;101032.00;6005270;23;20024;-81
2023/03/31 07:04:24;;;;;;;32.72;10.75;;;;;;;14.06;57.39;101058.59;6036557;23;20027;-82
2023/03/31 07:06:59;;;;;;;20.65;9.20;;;;;;;13.68;57.42;100986.56;5995419;23;20059;-82
2023/03/31 07:09:32;;;;;;;35.35;9.23;;;;;;;14.17;57.49;101045.03;5989478;23;20130;-82
2023/03/31 07:12:00;;;;;;;28.75;10.07;;;;;;;14.22;57.35;101047.25;6037457;23;20031;-83
2023/03/31 07:14:29;;;;;;;29.33;9.60;;;;;;;14.27;57.23;101036.97;5979352;23;20314;-82
2023/03/31 07:16:59;;;;;;;32.65;9.93;;;;;;;13.46;57.04;100896.25;5985747;23;20015;-82
2023/03/31 07:19:26;;;;;;;26.38;9.20;;;;;;;14.17;57.23;101002.31;5965858;23;20019;-82
2023/03/31 07:21:55;;;;;;;25.55;8.45;;;;;;;14.42;57.13;101029.31;6002912;23;20023;-83
2023/03/31 07:24:30;;;;;;;27.52;7.95;;;;;;;13.99;55.95;100937.38;5979175;23;20399;-82
2023/03/31 07:26:56;;;;;;;23.92;8.07;;;;;;;14.63;56.20;101040.53;5988017;23;20046;-83
2023/03/31 07:29:23;;;;;;;36.53;14.02;;;;;;;14.72;57.28;101028.13;5977597;23;20032;-81
2023/03/31 07:31:51;;;;;;;39.70;16.92;;;;;;;14.37;57.24;100954.97;5999129;23;20655;-82
2023/03/31 07:34:21;;;;;;;35.20;15.52;;;;;;;13.80;57.19;100843.09;5977304;23;20102;-83
2023/03/31 07:36:50;;;;;;;32.10;15.00;;;;;;;14.07;57.72;100895.59;5973839;23;20098;-83
2023/03/31 07:39:28;;;;;;;39.60;16.25;;;;;;;13.92;57.74;100877.59;6014862;23;20487;-81
2023/03/31 07:42:02;;;;;;;42.63;16.58;;;;;;;14.86;57.70;101008.03;6011623;23;20019;-83
2023/03/31 07:44:34;;;;;;;41.15;15.32;;;;;;;14.71;57.88;100984.53;5986311;23;20317;-82
2023/03/31 07:47:05;;;;;;;43.33;17.40;;;;;;;14.49;58.05;100955.56;5988730;23;20020;-84
2023/03/31 07:49:37;;;;;;;31.33;14.63;;;;;;;14.34;57.92;100923.19;5986402;23;20102;-82
2023/03/31 07:52:04;;;;;;;34.72;14.80;;;;;;;14.65;57.72;100961.06;6012811;23;20259;-83
2023/03/31 07:54:30;;;;;;;42.05;15.13;;;;;;;13.54;57.68;100781.66;6013325;23;20031;-84
2023/03/31 07:57:00;;;;;;;34.25;17.30;;;;;;;13.79;57.51;100812.09;6010462;23;20027;-83
2023/03/31 07:59:29;;;;;;;46.40;18.13;;;;;;;14.56;57.52;100916.56;6003119;23;20058;-84
2023/03/31 08:01:57;;;;;;;41.22;16.35;;;;;;;15.02;57.43;100981.41;5986570;23;20908;-84
2023/03/31 08:04:31;;;;;;;38.00;16.20;;;;;;;14.03;57.11;100813.28;5999713;23;20026;-83
2023/03/31 08:07:06;;;;;;;38.42;14.73;;;;;;;13.82;56.54;100742.41;6024499;23;20571;-81
2023/03/31 08:09:37;;;;;;;30.50;14.75;;;;;;;14.90;56.82;100945.22;6006602;23;20542;-81
2023/03/31 08:12:04;;;;;;;44.38;15.80;;;;;;;14.52;56.27;100867.09;5990125;23;20024;-82
2023/03/31 08:14:34;;;;;;;34.55;15.25;;;;;;;15.16;57.11;100988.03;6009936;23;20127;-82
2023/03/31 08:17:09;;;;;;;34.40;14.63;;;;;;;15.03;57.32;100969.72;5998232;23;20328;-81
2023/03/31 08:19:37;;;;;;;39.30;15.52;;;;;;;15.28;56.79;100989.44;6013709;23;20107;-82
2023/03/31 08:22:13;;;;;;;29.00;16.27;;;;;;;14.44;57.31;100840.31;6015396;23;20083;-81
2023/03/31 08:24:40;;;;;;;36.67;15.90;;;;;;;14.91;57.42;100905.00;6036352;23;20026;-83
2023/03/31 08:27:06;;;;;;;32.85;14.75;;;;;;;15.14;56.91;100920.50;6024427;23;20034;-83
2023/03/31 08:29:37;;;;;;;35.15;15.13;;;;;;;14.71;56.58;100829.53;6020757;23;20023;-83
2023/03/31 08:32:05;;;;;;;30.73;14.57;;;;;;;15.08;56.72;100903.25;5993595;23;20579;-81
2023/03/31 08:34:33;;;;;;;41.83;13.00;;;;;;;14.89;56.46;100858.03;6042160;23;20035;-80
2023/03/31 08:37:02;;;;;;;28.85;13.73;;;;;;;15.25;56.18;100906.03;5987068;23;20091;-84
2023/03/31 08:39:36;;;;;;;34.88;13.57;;;;;;;14.85;56.22;100845.97;5980380;23;20274;-85
2023/03/31 08:42:40;;;;;;;30.27;12.50;;;;;;;15.12;56.33;100896.59;6016940;23;20062;-84
2023/03/31 08:45:41;;;;;;;23.55;11.27;;;;;;;15.75;56.76;100982.84;6023522;23;20263;-86
2023/03/31 08:48:33;;;;;;;34.53;15.70;;;;;;;15.85;56.67;100978.22;6002228;23;20034;-84
2023/03/31 08:51:08;;;;;;;32.97;14.40;;;;;;;15.36;56.21;100885.19;6016466;23;20086;-86
2023/03/31 08:53:48;;;;;;;27.08;12.10;;;;;;;15.39;56.63;100892.88;6016261;23;20031;-85
2023/03/31 08:56:19;;;;;;;24.98;11.10;;;;;;;15.13;56.35;100823.38;5986692;23;20273;-84
2023/03/31 08:58:51;;;;;;;30.33;11.45;;;;;;;15.18;56.02;100809.53;5978714;23;20322;-85
2023/03/31 09:01:26;;;;;;;25.40;11.15;;;;;;;15.76;56.02;100893.53;6011135;23;20122;-84
2023/03/31 09:04:30;;;;;;;30.08;10.55;;;;;;;16.15;56.25;100925.91;6003074;23;20158;-84
2023/03/31 09:07:12;;;;;;;20.48;10.13;;;;;;;16.15;55.75;100941.16;6061161;23;20033;-82
2023/03/31 09:10:02;;;;;;;25.80;10.50;;;;;;;16.14;55.94;100944.81;6038137;23;20488;-83
2023/03/31 09:13:05;;;;;;;25.38;10.13;;;;;;;16.12;56.48;100942.31;6011978;23;20029;-84
2023/03/31 09:15:38;;;;;;;;;;;;;;;16.14;56.56;100936.78;6007899;23;20430;-83
2023/03/31 09:18:28;;;;;;;30.60;11.73;;;;;;;16.15;55.94;100914.38;6044771;23;19952;-84
2023/03/31 09:21:12;;;;;;;29.65;12.35;;;;;;;16.43;55.63;100931.81;6033905;23;20085;-83
2023/03/31 09:23:52;;;;;;;27.90;10.38;;;;;;;16.42;55.59;100906.00;6075369;23;20019;-82
2023/03/31 09:26:54;;;;;;;31.35;10.48;;;;;;;16.40;54.92;100918.72;6065627;23;20023;-83
2023/03/31 09:29:31;;;;;;;19.30;9.77;;;;;;;16.41;54.82;100919.59;6016957;23;20384;-84
2023/03/31 09:32:13;;;;;;;25.65;9.88;;;;;;;16.65;54.85;100942.84;6040668;23;20436;-85
2023/03/31 09:34:40;;;;;;;34.80;16.15;;;;;;;16.34;55.29;100875.72;6033679;23;20046;-84
2023/03/31 09:37:15;;;;;;;16.55;9.40;;;;;;;16.75;55.17;100923.91;6007913;23;20054;-84
2023/03/31 09:39:42;;;;;;;28.45;9.32;;;;;;;16.94;54.74;100930.81;6017026;23;20021;-82
2023/03/31 09:42:13;;;;;;;23.42;10.05;;;;;;;16.60;54.98;100864.78;6013859;23;20459;-84
2023/03/31 09:44:46;;;;;;;23.83;9.70;;;;;;;17.07;54.64;100931.97;6052205;23;20328;-84
2023/03/31 09:47:38;;;;;;;23.35;9.93;;;;;;;16.85;53.49;100863.78;6040592;23;20030;-82
2023/03/31 09:50:15;;;;;;;33.72;10.30;;;;;;;16.77;53.90;100807.50;6028047;23;20023;-83
2023/03/31 09:53:01;;;;;;;25.15;10.75;;;;;;;16.88;54.14;100819.72;6021460;23;20030;-83
2023/03/31 09:55:55;;;;;;;25.60;12.13;;;;;;;17.02;54.26;100829.72;6044348;23;20086;-81
2023/03/31 09:58:32;;;;;;;30.05;11.65;;;;;;;16.72;54.81;100774.16;5994909;23;20422;-81
2023/03/31 10:01:21;;;;;;;31.85;11.65;;;;;;;17.19;54.35;100827.81;6031451;23;20026;-84
2023/03/31 10:04:08;;;;;;;19.17;10.35;;;;;;;17.14;54.05;100803.38;6019271;23;20185;-87
2023/03/31 10:06:52;;;;;;;24.10;10.82;;;;;;;17.09;53.56;100781.59;5978224;23;20027;-82
2023/03/31 10:09:26;;;;;;;28.73;12.15;;;;;;;17.92;53.38;100909.84;6019151;23;20031;-82
2023/03/31 10:11:58;;;;;;;27.90;11.35;;;;;;;18.06;53.67;100902.88;6012149;23;20711;-84
2023/03/31 10:14:46;;;;;;;30.08;12.07;;;;;;;18.09;53.57;100905.22;5990228;23;20649;-81
2023/03/31 10:17:17;;;;;;;22.70;10.55;;;;;;;17.29;52.42;100737.22;5991373;23;20019;-81
2023/03/31 10:19:58;;;;;;;24.88;10.68;;;;;;;18.24;52.46;100858.75;6010810;23;20916;-83
2023/03/31 10:22:31;;;;;;;21.33;10.52;;;;;;;18.34;52.26;100851.28;6041556;23;20031;-82
2023/03/31 10:25:26;;;;;;;31.83;10.00;;;;;;;17.77;51.83;100733.50;6021662;23;20444;-81
2023/03/31 10:27:55;;;;;;;20.65;10.00;;;;;;;18.41;51.64;100836.09;6005573;23;20102;-83
2023/03/31 10:30:25;;;;;;;19.48;10.13;;;;;;;18.50;51.42;100826.94;5978018;23;20034;-82
2023/03/31 10:32:54;;;;;;;23.42;9.48;;;;;;;17.72;51.37;100693.81;5990960;23;20106;-81
2023/03/31 10:35:48;;;;;;;28.98;10.88;;;;;;;17.78;52.01;100686.88;5968336;23;20027;-78
2023/03/31 10:38:26;;;;;;;31.23;10.05;;;;;;;18.52;51.58;100797.16;6004989;23;20284;-83
2023/03/31 10:40:56;;;;;;;20.75;9.70;;;;;;;18.14;51.81;100714.75;5989742;23;20023;-83
2023/03/31 10:43:49;;;;;;;25.67;9.32;;;;;;;18.37;51.59;100708.47;5985914;23;20038;-84
2023/03/31 10:46:18;;;;;;;27.27;9.32;;;;;;;18.09;50.62;100631.19;5984478;23;20030;-83
2023/03/31 10:48:45;;;;;;;24.42;9.27;;;;;;;18.09;51.02;100635.72;5985058;23;20055;-84
2023/03/31 10:51:29;;;;;;;24.67;9.07;;;;;;;18.51;50.83;100671.84;6039522;23;20051;-84
2023/03/31 10:54:03;;;;;;;14.82;8.98;;;;;;;18.62;50.82;100667.84;5967082;23;20249;-81
2023/03/31 10:56:42;;;;;;;20.58;9.25;;;;;;;19.03;50.43;100724.69;6021570;23;20038;-85
2023/03/31 10:59:26;;;;;;;17.00;7.03;;;;;;;18.73;50.06;100648.56;6016783;23;20033;-86
2023/03/31 11:02:18;;;;;;;14.15;6.75;;;;;;;19.27;49.52;100730.72;6001455;23;20208;-82
2023/03/31 11:05:21;;;;;;;20.02;7.97;;;;;;;19.25;50.16;100727.38;6033197;23;20093;-84
2023/03/31 11:08:28;;;;;;;14.50;6.60;;;;;;;19.36;50.14;100719.66;6016921;23;20019;-84
2023/03/31 11:11:17;;;;;;;28.08;7.15;;;;;;;19.47;48.43;100696.78;6069797;23;20447;-85
2023/03/31 11:13:54;;;;;;;20.77;6.55;;;;;;;19.84;47.95;100684.09;6004321;23;20039;-86
2023/03/31 11:17:02;;;;;;;18.42;5.60;;;;;;;20.00;47.62;100694.56;6052247;23;20068;-85
2023/03/31 11:19:29;;;;;;;20.75;6.88;;;;;;;20.27;47.93;100695.59;6013388;23;20384;-84
2023/03/31 11:22:41;;;;;;;18.23;6.55;;;;;;;20.08;47.66;100610.06;6069573;23;20138;-86
2023/03/31 11:25:47;;;;;;;21.33;7.13;;;;;;;20.59;46.58;100625.88;6049901;23;20023;-85
2023/03/31 11:28:42;;;;;;;13.27;6.07;;;;;;;19.80;46.36;100465.44;6009867;23;20534;-83
2023/03/31 11:31:34;;;;;;;19.15;6.15;;;;;;;20.96;45.54;100607.50;6015016;23;20054;-85
2023/03/31 11:34:33;;;;;;;13.80;5.95;;;;;;;21.32;45.47;100636.03;6043061;23;20027;-84
2023/03/31 11:37:30;;;;;;;17.60;6.03;;;;;;;20.63;44.56;100511.19;6008248;23;20379;-84
2023/03/31 11:40:15;;;;;;;19.08;6.00;;;;;;;21.01;43.79;100567.25;6044269;23;20384;-82
2023/03/31 11:42:52;;;;;;;23.65;5.70;;;;;;;21.00;44.09;100592.59;6029488;23;20018;-83
2023/03/31 11:45:38;;;;;;;14.55;5.78;;;;;;;21.07;44.40;100615.03;6049655;23;20471;-81
2023/03/31 11:48:15;;;;;;;14.70;6.05;;;;;;;20.73;44.00;100542.28;6018474;23;20099;-85
2023/03/31 11:50:46;;;;;;;18.67;5.70;;;;;;;20.91;43.92;100593.81;5996842;23;20023;-84
2023/03/31 11:53:21;;;;;;;18.15;6.55;;;;;;;20.66;44.49;100569.28;6049072;23;20033;-84
2023/03/31 11:55:52;;;;;;;20.50;5.63;;;;;;;20.04;43.92;100476.75;6002486;23;20023;-84